createdAt,value
2022-11-24T07:28:31.063Z,98846.94
2022-11-24T07:30:58.690Z,98857.53
2022-11-24T07:33:27.586Z,98858.34
2022-11-24T07:35:54.571Z,98858.00
2022-11-24T07:38:21.475Z,98856.19
2022-11-24T07:40:48.143Z,98862.31
2022-11-24T07:43:20.035Z,98865.41
2022-11-24T07:45:52.617Z,98860.19
2022-11-24T07:48:20.606Z,98857.72
2022-11-24T07:50:52.544Z,98860.81
2022-11-24T07:53:22.123Z,98863.09
2022-11-24T07:56:02.518Z,98863.22
2022-11-24T07:58:32.962Z,98865.69
2022-11-24T08:01:01.054Z,98865.41
2022-11-24T08:03:27.978Z,98864.16
2022-11-24T08:08:46.587Z,98855.09
2022-11-24T08:11:15.610Z,98860.47
2022-11-24T08:13:42.656Z,98873.66
2022-11-24T08:16:11.630Z,98868.72
2022-11-24T08:18:39.028Z,98872.88
2022-11-24T08:21:06.355Z,98878.88
2022-11-24T08:23:33.174Z,98874.56
2022-11-24T08:26:05.161Z,98870.56
2022-11-24T08:28:32.518Z,98866.13
2022-11-24T08:31:10.026Z,98880.38
2022-11-24T08:33:37.299Z,98877.16
2022-11-24T08:36:09.329Z,98873.78
2022-11-24T08:38:36.103Z,98893.25
2022-11-24T08:41:08.780Z,98891.84
2022-11-24T08:43:35.525Z,98885.72
2022-11-24T08:46:05.052Z,98877.31
2022-11-24T08:48:32.235Z,98886.97
2022-11-24T08:50:59.367Z,98880.50
2022-11-24T08:53:26.082Z,98881.91
2022-11-24T08:55:53.031Z,98887.88
2022-11-24T08:58:20.884Z,98892.00
2022-11-24T09:00:47.576Z,98892.00
2022-11-24T09:03:14.597Z,98892.13
2022-11-24T09:05:51.567Z,98888.59
2022-11-24T09:08:18.664Z,98894.72
2022-11-24T09:10:45.335Z,98905.63
2022-11-24T09:13:12.155Z,98898.72
2022-11-24T09:15:38.783Z,98911.56
2022-11-24T09:18:05.527Z,98900.47
2022-11-24T09:20:32.315Z,98901.09
2022-11-24T09:22:59.000Z,98896.16
2022-11-24T09:25:25.662Z,98903.03
2022-11-24T09:27:52.478Z,98902.22
2022-11-24T09:30:20.392Z,98903.38
2022-11-24T09:32:47.097Z,98906.91
2022-11-24T09:35:13.705Z,98900.47
2022-11-24T09:37:40.442Z,98907.50
2022-11-24T09:40:08.003Z,98904.31
2022-11-24T09:42:52.086Z,98911.00
2022-11-24T09:46:04.574Z,98911.50
2022-11-24T09:48:39.464Z,98916.28
2022-11-24T09:51:10.635Z,98913.84
2022-11-24T09:53:44.738Z,98923.03
2022-11-24T09:56:25.231Z,98918.81
2022-11-24T09:59:02.705Z,98920.78
2022-11-24T10:01:36.253Z,98931.78
2022-11-24T10:04:06.353Z,98922.84
2022-11-24T10:06:44.403Z,98925.91
2022-11-24T10:09:45.342Z,98916.94
2022-11-24T10:12:36.176Z,98929.22
2022-11-24T10:15:25.640Z,98916.44
2022-11-24T10:17:55.312Z,98915.91
2022-11-24T10:20:31.123Z,98903.13
2022-11-24T10:23:09.708Z,98923.00
2022-11-24T10:25:36.323Z,98921.31
2022-11-24T10:28:05.200Z,98924.59
2022-11-24T10:30:31.908Z,98920.06
2022-11-24T10:33:03.063Z,98933.03
2022-11-24T10:35:40.910Z,98930.97
2022-11-24T10:38:16.810Z,98935.34
2022-11-24T10:40:58.083Z,98935.47
2022-11-24T10:43:29.472Z,98938.06
2022-11-24T10:46:10.843Z,98949.66
2022-11-24T10:49:23.836Z,98945.59
2022-11-24T10:52:14.167Z,98950.84
2022-11-24T10:55:07.477Z,98946.69
2022-11-24T10:57:36.928Z,98955.59
2022-11-24T11:00:34.202Z,98942.09
2022-11-24T11:03:15.110Z,98963.31
2022-11-24T11:05:44.012Z,98965.06
2022-11-24T11:08:14.585Z,98971.94
2022-11-24T11:10:43.954Z,98978.84
2022-11-24T11:13:30.308Z,98981.13
2022-11-24T11:15:58.350Z,98976.78
2022-11-24T11:18:33.319Z,98977.69
2022-11-24T11:21:04.977Z,98989.94
2022-11-24T11:23:33.999Z,98992.50
2022-11-24T11:26:22.580Z,98998.09
2022-11-24T11:35:01.708Z,98992.03
2022-11-24T11:37:31.482Z,98993.16
2022-11-24T11:39:58.466Z,99005.38
2022-11-24T11:45:33.844Z,99002.19
2022-11-24T11:48:24.414Z,99007.78
2022-11-24T11:51:22.146Z,99004.63
2022-11-24T11:54:22.411Z,99007.81
2022-11-24T11:56:52.987Z,99008.63
2022-11-24T12:00:10.007Z,99013.88
2022-11-24T12:02:53.664Z,99007.81
2022-11-24T12:05:33.527Z,99012.09
2022-11-24T12:08:11.544Z,99017.44
2022-11-24T12:10:42.730Z,99013.44
2022-11-24T12:13:28.267Z,99029.59
2022-11-24T12:15:57.038Z,99023.88
2022-11-24T12:18:56.022Z,99019.06
2022-11-24T12:21:21.318Z,99023.78
2022-11-24T12:23:57.556Z,99022.47
2022-11-24T12:26:45.449Z,99016.78
2022-11-24T12:29:27.145Z,99028.78
2022-11-24T12:32:19.704Z,99024.22
2022-11-24T12:34:54.497Z,99023.50
2022-11-24T12:37:38.194Z,99027.66
2022-11-24T12:40:08.866Z,99023.34
2022-11-24T12:43:19.235Z,99014.56
2022-11-24T12:45:48.756Z,99021.00
2022-11-24T12:49:03.406Z,99022.03
2022-11-24T12:51:40.378Z,99009.38
2022-11-24T15:08:55.692Z,99130.41
2022-11-24T15:11:22.714Z,99132.09
2022-11-24T15:13:54.648Z,99134.91
2022-11-24T15:16:23.538Z,99133.81
2022-11-24T15:18:58.949Z,99133.22
2022-11-24T15:21:36.908Z,99138.31
2022-11-24T15:24:16.063Z,99134.28
2022-11-24T15:26:43.444Z,99131.88
2022-11-24T15:29:11.248Z,99130.03
2022-11-24T15:31:44.190Z,99131.88
2022-11-24T15:34:14.606Z,99127.69
2022-11-24T15:36:41.299Z,99136.47
2022-11-24T15:39:08.026Z,99133.06
2022-11-24T15:41:34.884Z,99137.66
2022-11-24T15:44:01.788Z,99147.50
2022-11-24T15:49:28.758Z,99150.72
2022-11-24T15:51:55.439Z,99155.44
2022-11-24T15:54:22.200Z,99155.59
2022-11-24T15:56:48.932Z,99146.84
2022-11-24T15:59:20.162Z,99154.19
2022-11-24T16:01:49.581Z,99151.13
2022-11-24T16:04:16.634Z,99161.56
2022-11-24T16:06:43.347Z,99162.75
2022-11-24T16:09:15.907Z,99174.41
2022-11-24T16:11:42.782Z,99169.03
2022-11-24T16:14:09.735Z,99180.22
2022-11-24T16:16:36.561Z,99167.75
2022-11-24T16:19:03.454Z,99167.16
2022-11-24T16:21:30.089Z,99171.44
2022-11-24T16:23:56.735Z,99172.31
2022-11-24T16:26:23.426Z,99176.59
2022-11-24T16:28:50.129Z,99169.38
2022-11-24T16:31:17.993Z,99177.81
2022-11-24T16:33:46.198Z,99175.78
2022-11-24T16:36:13.858Z,99183.75
2022-11-24T16:38:40.914Z,99190.16
2022-11-24T16:41:10.255Z,99187.09
2022-11-24T16:43:37.321Z,99187.09
2022-11-24T16:46:18.921Z,99186.91
2022-11-24T16:48:47.028Z,99192.53
2022-11-24T16:51:14.574Z,99204.50
2022-11-24T16:53:41.460Z,99204.31
2022-11-24T16:56:08.615Z,99199.88
2022-11-24T16:58:39.802Z,99198.66
2022-11-24T17:01:11.279Z,99208.47
2022-11-24T17:03:38.604Z,99205.69
2022-11-24T17:06:07.489Z,99205.69
2022-11-24T17:08:36.722Z,99204.75
2022-11-24T17:11:14.217Z,99203.22
2022-11-24T17:13:41.709Z,99207.47
2022-11-24T17:16:10.844Z,99204.38
2022-11-24T17:18:38.857Z,99213.09
2022-11-24T17:21:09.755Z,99227.00
2022-11-24T17:23:37.136Z,99225.88
2022-11-24T17:26:05.764Z,99237.34
2022-11-24T17:28:32.501Z,99234.56
2022-11-24T17:30:59.403Z,99236.13
2022-11-24T17:33:28.251Z,99245.00
2022-11-24T17:35:56.009Z,99249.53
2022-11-24T17:38:22.730Z,99241.25
2022-11-24T17:40:49.342Z,99240.75
2022-11-24T17:43:15.994Z,99248.97
2022-11-24T17:45:42.952Z,99254.19
2022-11-24T17:48:09.667Z,99252.19
2022-11-24T17:50:36.298Z,99267.63
2022-11-24T17:53:02.943Z,99264.34
2022-11-24T17:55:29.588Z,99270.13
2022-11-24T17:57:56.589Z,99271.69
2022-11-24T18:00:23.483Z,99270.72
2022-11-24T18:02:50.170Z,99281.22
2022-11-24T18:05:16.889Z,99287.47
2022-11-24T18:07:43.551Z,99289.44
2022-11-24T18:10:10.822Z,99293.28
2022-11-24T18:12:37.490Z,99292.13
2022-11-24T18:15:04.576Z,99301.19
2022-11-24T18:17:31.286Z,99302.03
2022-11-24T18:19:58.018Z,99304.94
2022-11-24T18:22:50.052Z,99305.41
2022-11-24T18:25:11.466Z,99319.97
2022-11-24T18:27:38.224Z,99312.25
2022-11-24T18:30:05.980Z,99317.97
2022-11-24T18:32:32.794Z,99320.06
2022-11-24T18:34:59.461Z,99322.78
2022-11-24T18:37:26.165Z,99322.88
2022-11-24T18:39:53.846Z,99327.56
2022-11-24T18:42:21.640Z,99328.72
2022-11-24T18:44:52.590Z,99320.41
2022-11-24T18:47:20.746Z,99329.88
2022-11-24T18:49:47.501Z,99336.34
2022-11-24T18:52:14.167Z,99330.44
2022-11-24T18:54:40.861Z,99333.63
2022-11-24T18:57:07.562Z,99333.34
2022-11-24T18:59:34.238Z,99331.59
2022-11-24T19:02:01.029Z,99338.53
2022-11-24T19:04:27.834Z,99335.25
2022-11-24T19:06:54.538Z,99334.97
2022-11-24T19:09:22.764Z,99337.84
2022-11-24T19:11:49.693Z,99346.69
2022-11-24T19:14:17.867Z,99346.22
2022-11-24T19:16:46.293Z,99341.09
2022-11-24T19:19:13.066Z,99348.69
2022-11-24T19:21:40.327Z,99359.38
2022-11-24T19:24:10.133Z,99355.25
2022-11-24T19:26:37.930Z,99369.31
2022-11-24T19:29:05.534Z,99373.25
2022-11-24T19:31:33.429Z,99366.97
2022-11-24T19:34:00.774Z,99371.97
2022-11-24T19:36:27.551Z,99375.06
2022-11-24T19:38:55.837Z,99371.50
2022-11-24T19:41:26.007Z,99376.13
2022-11-24T19:43:56.420Z,99387.56
2022-11-24T19:46:27.063Z,99381.81
2022-11-24T19:48:56.172Z,99395.31
2022-11-24T19:51:25.975Z,99393.75
2022-11-24T19:53:53.432Z,99400.50
2022-11-24T19:56:21.893Z,99400.50
2022-11-24T19:58:50.162Z,99397.91
2022-11-24T20:01:21.925Z,99408.25
2022-11-24T20:03:54.958Z,99414.75
2022-11-24T20:06:21.734Z,99412.94
2022-11-24T20:08:48.443Z,99421.88
2022-11-24T20:11:16.699Z,99418.78
2022-11-24T20:13:44.895Z,99414.97
2022-11-24T20:16:14.281Z,99414.50
2022-11-24T20:18:43.959Z,99419.50
2022-11-24T20:21:11.476Z,99422.38
2022-11-24T20:23:38.720Z,99424.75
2022-11-24T20:26:11.301Z,99432.56
2022-11-24T20:28:38.230Z,99431.00
2022-11-24T20:31:07.511Z,99440.84
2022-11-24T20:33:35.109Z,99450.25
2022-11-24T20:36:04.210Z,99447.66
2022-11-24T20:38:30.994Z,99449.72
2022-11-24T20:41:09.021Z,99451.81
2022-11-24T20:43:36.774Z,99457.56
2022-11-24T20:46:05.733Z,99459.81
2022-11-24T20:48:34.242Z,99457.41
2022-11-24T20:51:09.605Z,99449.91
2022-11-24T20:53:36.646Z,99455.53
2022-11-24T20:56:07.268Z,99459.47
2022-11-24T20:58:35.184Z,99463.06
2022-11-24T21:01:09.282Z,99466.13
2022-11-24T21:03:41.406Z,99459.19
2022-11-24T21:06:10.689Z,99462.56
2022-11-24T21:11:06.733Z,99468.03
2022-11-24T21:13:35.194Z,99469.56
2022-11-24T21:16:14.062Z,99478.16
2022-11-24T21:18:41.285Z,99477.69
2022-11-24T21:21:08.277Z,99479.97
2022-11-24T21:23:35.111Z,99479.19
2022-11-24T21:26:05.560Z,99471.50
2022-11-24T21:28:33.506Z,99481.38
2022-11-24T21:31:04.945Z,99485.53
2022-11-24T21:33:31.720Z,99484.75
2022-11-24T21:36:05.737Z,99484.53
2022-11-24T21:38:32.674Z,99482.41
2022-11-24T21:41:03.656Z,99486.88
2022-11-24T21:43:31.198Z,99479.81
2022-11-24T21:46:08.788Z,99485.59
2022-11-24T21:48:36.691Z,99486.63
2022-11-24T21:51:05.773Z,99491.09
2022-11-24T21:53:36.989Z,99490.38
2022-11-24T21:56:12.984Z,99481.56
2022-11-24T21:58:57.266Z,99488.03
2022-11-24T22:01:27.237Z,99486.22
2022-11-24T22:03:55.400Z,99496.19
2022-11-24T22:06:22.238Z,99490.00
2022-11-24T22:08:49.697Z,99491.03
2022-11-24T22:11:18.948Z,99494.63
2022-11-24T22:13:46.147Z,99501.38
2022-11-24T22:16:15.876Z,99502.50
2022-11-24T22:18:43.486Z,99514.94
2022-11-24T22:21:12.623Z,99514.41
2022-11-24T22:23:39.739Z,99509.22
2022-11-24T22:26:18.369Z,99507.13
2022-11-24T22:28:45.809Z,99511.28
2022-11-24T22:31:14.981Z,99523.50
2022-11-24T22:33:41.875Z,99517.53
2022-11-24T22:36:09.847Z,99518.63
2022-11-24T22:38:36.949Z,99523.81
2022-11-24T22:41:08.129Z,99522.28
2022-11-24T22:43:36.089Z,99522.78
2022-11-24T22:46:07.629Z,99527.19
2022-11-24T22:48:34.835Z,99527.19
2022-11-24T22:51:05.855Z,99527.19
2022-11-24T22:53:32.743Z,99533.16
2022-11-24T22:56:04.586Z,99538.88
2022-11-24T22:58:32.906Z,99547.97
2022-11-24T23:01:12.838Z,99543.28
2022-11-24T23:03:40.339Z,99545.16
2022-11-24T23:06:11.943Z,99543.81
2022-11-24T23:08:39.249Z,99546.16
2022-11-24T23:11:08.805Z,99555.56
2022-11-24T23:13:35.634Z,99554.50
2022-11-24T23:16:07.447Z,99556.13
2022-11-24T23:18:34.831Z,99551.97
2022-11-24T23:21:18.951Z,99553.25
2022-11-24T23:23:46.166Z,99550.13
2022-11-24T23:26:15.811Z,99551.47
2022-11-24T23:28:43.323Z,99560.31
2022-11-24T23:31:15.133Z,99561.09
2022-11-24T23:33:42.310Z,99557.44
2022-11-24T23:36:11.382Z,99565.00
2022-11-24T23:38:38.202Z,99558.75
2022-11-24T23:41:07.063Z,99563.47
2022-11-24T23:43:34.839Z,99568.16
2022-11-24T23:46:06.052Z,99569.16
2022-11-24T23:48:33.421Z,99568.59
2022-11-24T23:51:07.538Z,99572.25
2022-11-24T23:53:36.149Z,99572.25
2022-11-24T23:56:03.298Z,99577.97
2022-11-24T23:58:30.551Z,99575.13
